createdAt,value
2018-07-30T00:02:07.318Z,69.23
2018-07-30T00:04:34.630Z,69.02
2018-07-30T00:07:01.939Z,69.14
2018-07-30T00:09:29.223Z,69.52
2018-07-30T00:11:56.429Z,69.57
2018-07-30T00:14:23.677Z,69.79
2018-07-30T00:16:50.909Z,70.12
2018-07-30T00:19:18.195Z,69.89
2018-07-30T00:21:45.460Z,69.92
2018-07-30T00:24:12.682Z,69.92
2018-07-30T00:26:39.990Z,70.11
2018-07-30T00:29:07.171Z,69.71
2018-07-30T00:31:34.452Z,69.80
2018-07-30T00:34:01.878Z,70.30
2018-07-30T00:36:29.061Z,70.43
2018-07-30T00:38:56.330Z,70.43
2018-07-30T00:41:23.634Z,70.72
2018-07-30T00:43:50.898Z,70.64
2018-07-30T00:46:18.179Z,70.45
2018-07-30T00:48:45.315Z,70.89
2018-07-30T00:51:12.611Z,71.01
2018-07-30T00:53:39.825Z,71.16
2018-07-30T00:56:07.040Z,71.07
2018-07-30T00:58:34.205Z,71.27
2018-07-30T01:01:01.463Z,71.39
2018-07-30T01:03:28.644Z,71.66
2018-07-30T01:05:55.938Z,71.77
2018-07-30T01:08:23.188Z,71.66
2018-07-30T01:10:50.436Z,71.67
2018-07-30T01:13:17.661Z,71.55
2018-07-30T01:15:44.954Z,71.60
2018-07-30T01:18:12.161Z,71.95
2018-07-30T01:20:39.528Z,72.02
2018-07-30T01:23:07.169Z,72.01
2018-07-30T01:25:34.449Z,71.83
2018-07-30T01:28:01.779Z,72.10
2018-07-30T01:30:29.282Z,72.27
2018-07-30T01:32:56.515Z,72.40
2018-07-30T01:35:23.721Z,72.00
2018-07-30T01:37:50.905Z,72.29
2018-07-30T01:40:18.187Z,72.46
2018-07-30T01:42:45.498Z,72.34
2018-07-30T01:45:12.768Z,72.53
2018-07-30T01:47:39.996Z,72.78
2018-07-30T01:50:07.272Z,72.92
2018-07-30T01:52:34.578Z,72.88
2018-07-30T01:55:01.906Z,73.36
2018-07-30T01:57:29.146Z,73.00
2018-07-30T01:59:56.355Z,73.07
2018-07-30T02:02:23.624Z,73.03
2018-07-30T02:04:50.893Z,73.06
2018-07-30T02:07:18.153Z,72.86
2018-07-30T02:09:45.317Z,73.56
2018-07-30T02:12:12.660Z,73.17
2018-07-30T02:14:39.913Z,72.97
2018-07-30T02:17:07.128Z,74.28
2018-07-30T02:19:34.564Z,74.51
2018-07-30T02:22:01.908Z,74.07
2018-07-30T02:24:29.172Z,73.83
2018-07-30T02:26:56.413Z,74.10
2018-07-30T02:29:23.636Z,73.80
2018-07-30T02:31:51.001Z,74.16
2018-07-30T02:34:18.251Z,74.03
2018-07-30T02:36:45.739Z,74.60
2018-07-30T02:39:13.828Z,74.09
2018-07-30T02:41:41.444Z,74.03
2018-07-30T02:44:08.643Z,74.68
2018-07-30T02:46:35.984Z,74.73
2018-07-30T02:49:03.280Z,74.75
2018-07-30T02:51:31.717Z,75.05
2018-07-30T02:53:59.095Z,75.00
2018-07-30T02:56:26.337Z,75.12
2018-07-30T02:58:53.638Z,75.17
2018-07-30T03:01:20.875Z,75.58
2018-07-30T03:05:17.583Z,75.36
2018-07-30T03:07:44.922Z,75.54
2018-07-30T03:10:12.209Z,75.32
2018-07-30T03:12:39.413Z,75.90
2018-07-30T03:15:06.682Z,75.96
2018-07-30T03:17:33.878Z,76.02
2018-07-30T03:20:01.096Z,75.60
2018-07-30T03:22:28.294Z,76.34
2018-07-30T03:24:55.591Z,76.51
2018-07-30T03:27:22.913Z,76.15
2018-07-30T03:29:50.158Z,76.32
2018-07-30T03:32:17.598Z,75.68
2018-07-30T03:34:44.980Z,76.01
2018-07-30T03:37:12.242Z,76.30
2018-07-30T03:39:39.507Z,76.04
2018-07-30T03:42:06.847Z,76.33
2018-07-30T03:44:34.115Z,77.02
2018-07-30T03:47:01.302Z,76.43
2018-07-30T03:49:28.532Z,76.54
2018-07-30T03:51:55.721Z,76.48
2018-07-30T03:54:23.001Z,76.99
2018-07-30T03:56:50.243Z,76.50
2018-07-30T03:59:17.501Z,76.08
2018-07-30T04:01:44.811Z,76.15
2018-07-30T04:04:11.996Z,77.04
2018-07-30T04:06:39.187Z,77.29
2018-07-30T04:09:06.494Z,77.40
2018-07-30T04:11:33.712Z,76.95
2018-07-30T04:14:00.965Z,76.74
2018-07-30T04:16:28.079Z,76.98
2018-07-30T04:18:55.341Z,77.68
2018-07-30T04:21:22.571Z,77.56
2018-07-30T04:23:49.773Z,77.07
2018-07-30T04:26:17.034Z,77.80
2018-07-30T04:28:44.241Z,77.33
2018-07-30T04:31:11.506Z,77.02
2018-07-30T04:33:38.708Z,77.90
2018-07-30T04:36:06.038Z,77.24
2018-07-30T04:38:33.246Z,77.34
2018-07-30T04:41:00.492Z,77.74
2018-07-30T04:43:27.721Z,77.35
2018-07-30T04:45:54.942Z,77.07
2018-07-30T04:48:22.277Z,77.42
2018-07-30T04:50:49.556Z,76.30
2018-07-30T04:53:16.785Z,75.29
2018-07-30T04:55:43.987Z,74.63
2018-07-30T04:58:11.259Z,75.13
2018-07-30T05:00:38.521Z,74.94
2018-07-30T05:03:06.565Z,74.23
2018-07-30T05:05:34.815Z,73.20
2018-07-30T05:08:02.076Z,73.17
2018-07-30T05:10:29.342Z,72.89
2018-07-30T05:12:56.457Z,72.88
2018-07-30T05:15:23.765Z,73.32
2018-07-30T05:17:51.131Z,73.36
2018-07-30T05:20:18.337Z,73.68
2018-07-30T05:22:45.565Z,73.28
2018-07-30T05:25:12.733Z,74.12
2018-07-30T05:27:39.947Z,74.29
2018-07-30T05:30:07.142Z,73.65
2018-07-30T05:32:34.352Z,74.23
2018-07-30T05:35:01.551Z,74.88
2018-07-30T05:37:28.792Z,74.17
2018-07-30T05:39:56.011Z,73.90
2018-07-30T05:42:23.245Z,73.48
2018-07-30T05:44:50.496Z,73.12
2018-07-30T05:47:17.656Z,72.26
2018-07-30T05:49:44.861Z,71.28
2018-07-30T05:52:12.110Z,70.61
2018-07-30T05:54:39.401Z,70.36
2018-07-30T05:57:06.622Z,70.11
2018-07-30T05:59:33.995Z,69.73
2018-07-30T06:02:01.240Z,69.32
2018-07-30T06:04:28.346Z,68.75
2018-07-30T06:06:55.521Z,68.52
2018-07-30T06:09:22.746Z,68.07
2018-07-30T06:11:49.943Z,67.39
2018-07-30T06:14:17.184Z,67.18
2018-07-30T06:16:44.420Z,66.91
2018-07-30T06:19:11.623Z,66.39
2018-07-30T06:21:38.865Z,66.42
2018-07-30T06:24:06.467Z,65.91
2018-07-30T06:26:33.766Z,65.58
2018-07-30T06:29:01.093Z,64.76
2018-07-30T06:31:28.391Z,64.04
2018-07-30T06:33:55.612Z,63.43
2018-07-30T06:36:22.792Z,62.59
2018-07-30T06:38:50.892Z,61.33
2018-07-30T06:41:18.087Z,61.82
2018-07-30T06:43:45.399Z,60.73
2018-07-30T06:46:12.709Z,60.43
2018-07-30T06:48:39.977Z,60.64
2018-07-30T06:51:07.450Z,58.80
2018-07-30T06:53:34.711Z,57.55
2018-07-30T06:56:01.904Z,56.92
2018-07-30T06:58:29.124Z,56.15
2018-07-30T07:00:56.370Z,56.16
2018-07-30T07:03:23.717Z,55.13
2018-07-30T07:05:51.006Z,55.31
2018-07-30T07:08:18.233Z,54.61
2018-07-30T07:10:45.489Z,54.70
2018-07-30T07:13:12.719Z,54.50
2018-07-30T07:15:39.911Z,52.96
2018-07-30T07:18:07.090Z,54.14
2018-07-30T07:20:34.351Z,53.99
2018-07-30T07:23:01.567Z,53.14
2018-07-30T07:25:28.925Z,51.92
2018-07-30T07:27:56.171Z,52.71
2018-07-30T07:30:23.443Z,51.76
2018-07-30T07:32:50.695Z,50.40
2018-07-30T07:35:17.909Z,49.85
2018-07-30T07:37:45.124Z,50.07
2018-07-30T07:40:12.409Z,49.51
2018-07-30T07:42:39.561Z,48.91
2018-07-30T07:45:07.496Z,48.36
2018-07-30T07:47:34.809Z,47.49
2018-07-30T07:50:02.112Z,46.94
2018-07-30T07:52:29.367Z,46.53
2018-07-30T07:54:56.761Z,46.94
2018-07-30T07:57:24.488Z,45.96
2018-07-30T07:59:51.801Z,45.84
2018-07-30T08:02:19.007Z,44.25
2018-07-30T08:04:46.288Z,42.74
2018-07-30T08:07:13.643Z,41.65
2018-07-30T08:09:40.914Z,41.39
2018-07-30T08:12:08.249Z,41.14
2018-07-30T08:14:35.689Z,38.80
2018-07-30T08:17:02.991Z,38.77
2018-07-30T08:19:30.339Z,39.04
2018-07-30T08:21:57.628Z,38.88
2018-07-30T08:24:25.037Z,39.26
2018-07-30T08:26:52.325Z,38.71
2018-07-30T08:29:19.562Z,38.73
2018-07-30T08:31:47.088Z,39.05
2018-07-30T08:34:14.326Z,38.92
2018-07-30T08:36:41.522Z,38.70
2018-07-30T08:39:10.002Z,39.08
2018-07-30T08:41:37.337Z,39.53
2018-07-30T08:44:04.873Z,39.83
2018-07-30T08:46:32.149Z,38.67
2018-07-30T08:48:59.402Z,38.45
2018-07-30T08:51:26.618Z,38.92
2018-07-30T08:53:53.854Z,39.88
2018-07-30T08:56:21.121Z,38.61
2018-07-30T08:58:48.295Z,38.09
2018-07-30T09:01:15.562Z,37.85
2018-07-30T09:03:42.736Z,40.00
2018-07-30T09:06:09.970Z,39.50
2018-07-30T09:08:37.297Z,39.80
2018-07-30T09:11:04.533Z,38.83
2018-07-30T09:13:31.932Z,39.30
2018-07-30T09:15:59.138Z,38.56
2018-07-30T09:18:26.467Z,39.15
2018-07-30T09:20:53.846Z,39.91
2018-07-30T09:23:21.058Z,37.66
2018-07-30T09:25:48.408Z,35.96
2018-07-30T09:28:15.565Z,36.24
2018-07-30T09:30:42.889Z,38.04
2018-07-30T09:33:10.100Z,35.44
2018-07-30T09:35:37.340Z,35.43
2018-07-30T09:38:04.686Z,33.95
2018-07-30T09:40:31.977Z,35.83
2018-07-30T09:42:59.256Z,34.96
2018-07-30T09:45:26.598Z,38.89
2018-07-30T09:47:53.894Z,39.98
2018-07-30T09:50:21.153Z,41.31
2018-07-30T09:52:48.462Z,42.70
2018-07-30T09:55:15.717Z,41.35
2018-07-30T09:57:43.298Z,40.73
2018-07-30T10:00:10.588Z,40.77
2018-07-30T10:02:38.046Z,40.60
2018-07-30T10:05:05.309Z,38.53
2018-07-30T10:07:32.617Z,36.52
2018-07-30T10:09:59.901Z,36.20
2018-07-30T10:12:27.145Z,36.14
2018-07-30T10:14:54.521Z,37.06
2018-07-30T10:17:21.745Z,35.04
2018-07-30T10:19:49.064Z,36.49
2018-07-30T10:22:16.275Z,38.46
2018-07-30T10:24:43.507Z,36.56
2018-07-30T10:27:10.716Z,36.54
2018-07-30T10:29:38.031Z,36.64
2018-07-30T10:32:05.311Z,35.80
2018-07-30T10:34:32.548Z,36.71
2018-07-30T10:36:59.848Z,35.59
2018-07-30T10:39:27.121Z,36.17
2018-07-30T10:41:54.520Z,35.06
2018-07-30T10:44:21.852Z,33.68
2018-07-30T10:46:49.003Z,31.42
2018-07-30T10:49:16.279Z,30.71
2018-07-30T10:51:43.548Z,32.89
2018-07-30T10:54:10.794Z,32.33
2018-07-30T10:56:38.127Z,33.68
2018-07-30T10:59:05.515Z,34.55
2018-07-30T11:01:32.789Z,34.46
2018-07-30T11:04:00.032Z,35.87
2018-07-30T11:06:27.240Z,35.71
2018-07-30T11:08:54.556Z,36.27
2018-07-30T11:11:21.801Z,36.98
2018-07-30T11:13:49.055Z,36.38
2018-07-30T11:16:16.283Z,37.06
2018-07-30T11:18:43.521Z,35.10
2018-07-30T11:21:10.739Z,36.25
2018-07-30T11:23:38.007Z,34.96
2018-07-30T11:26:05.369Z,33.76
2018-07-30T11:28:32.607Z,34.16
2018-07-30T11:30:59.846Z,33.58
2018-07-30T11:33:27.155Z,32.02
2018-07-30T11:35:54.408Z,32.91
2018-07-30T11:38:21.732Z,32.65
2018-07-30T11:40:48.966Z,32.10
2018-07-30T11:43:16.244Z,31.28
2018-07-30T11:45:43.439Z,29.86
2018-07-30T11:48:10.748Z,30.10
2018-07-30T11:50:38.005Z,30.56
2018-07-30T11:53:05.474Z,30.76
2018-07-30T11:55:32.775Z,31.04
2018-07-30T11:58:00.160Z,30.23
2018-07-30T12:00:27.530Z,30.59
2018-07-30T12:02:54.792Z,29.66
2018-07-30T12:05:22.016Z,29.30
2018-07-30T12:07:49.254Z,28.28
2018-07-30T12:10:16.470Z,27.01
2018-07-30T12:12:43.700Z,28.06
2018-07-30T12:15:11.002Z,28.62
2018-07-30T12:17:38.239Z,28.44
2018-07-30T12:20:05.549Z,28.55
2018-07-30T12:22:32.764Z,27.49
2018-07-30T12:25:00.080Z,26.89
2018-07-30T12:27:27.410Z,28.02
2018-07-30T12:29:54.699Z,27.62
2018-07-30T12:32:21.987Z,27.29
2018-07-30T12:34:49.198Z,27.92
2018-07-30T12:37:16.491Z,27.24
2018-07-30T12:39:43.716Z,26.37
2018-07-30T12:42:10.960Z,26.08
2018-07-30T12:44:38.259Z,26.09
2018-07-30T12:47:05.775Z,27.03
2018-07-30T12:49:33.002Z,27.91
2018-07-30T12:52:00.270Z,28.15
2018-07-30T12:54:27.517Z,26.92
2018-07-30T12:56:54.733Z,26.00
2018-07-30T12:59:21.968Z,24.73
2018-07-30T13:01:49.126Z,25.31
2018-07-30T13:04:16.352Z,25.92
2018-07-30T13:06:43.878Z,25.94
2018-07-30T13:09:11.206Z,25.06
2018-07-30T13:11:38.506Z,23.73
2018-07-30T13:14:05.787Z,24.97
2018-07-30T13:16:33.027Z,24.16
2018-07-30T13:19:00.271Z,23.94
2018-07-30T13:21:27.591Z,24.65
2018-07-30T13:23:54.819Z,24.58
2018-07-30T13:26:22.070Z,24.77
2018-07-30T13:28:49.408Z,24.45
2018-07-30T13:31:16.638Z,23.99
2018-07-30T13:33:43.835Z,23.21
2018-07-30T13:36:11.092Z,22.95
2018-07-30T13:38:38.459Z,23.22
2018-07-30T13:41:05.685Z,23.21
2018-07-30T13:43:36.882Z,21.77
2018-07-30T13:46:04.198Z,22.36
2018-07-30T13:51:04.543Z,21.34
2018-07-30T13:53:31.863Z,21.67
2018-07-30T13:55:59.131Z,21.49
2018-07-30T13:58:29.911Z,23.84
2018-07-30T14:00:57.144Z,24.37
2018-07-30T14:03:27.705Z,24.84
2018-07-30T14:05:55.040Z,25.24
2018-07-30T14:08:22.344Z,25.08
2018-07-30T14:10:49.685Z,24.10
2018-07-30T14:13:17.078Z,24.64
2018-07-30T14:15:44.322Z,25.83
2018-07-30T14:18:11.712Z,24.82
2018-07-30T14:20:38.992Z,24.93
2018-07-30T14:23:06.588Z,24.19
2018-07-30T14:25:33.929Z,23.15
2018-07-30T14:28:01.099Z,21.39
2018-07-30T14:30:28.387Z,21.70
2018-07-30T14:32:55.664Z,22.61
2018-07-30T14:35:23.097Z,22.33
2018-07-30T14:37:50.286Z,22.29
2018-07-30T14:40:17.599Z,23.75
2018-07-30T14:42:44.818Z,23.68
2018-07-30T14:45:12.015Z,23.65
2018-07-30T14:47:39.295Z,25.50
2018-07-30T14:50:07.553Z,25.09
2018-07-30T14:52:34.880Z,24.77
2018-07-30T14:55:02.248Z,23.84
2018-07-30T14:57:29.501Z,23.65
2018-07-30T14:59:56.858Z,24.38
2018-07-30T15:02:24.107Z,25.11
2018-07-30T15:04:51.430Z,24.60
2018-07-30T15:07:18.716Z,24.74
2018-07-30T15:09:45.945Z,24.17
2018-07-30T15:12:13.289Z,24.18
2018-07-30T15:14:40.515Z,24.88
2018-07-30T15:17:07.795Z,23.67
2018-07-30T15:19:35.197Z,24.83
2018-07-30T15:22:02.378Z,25.62
2018-07-30T15:24:29.687Z,24.16
2018-07-30T15:26:56.918Z,23.88
2018-07-30T15:29:24.316Z,23.98
2018-07-30T15:31:51.545Z,23.68
2018-07-30T15:34:18.825Z,23.52
2018-07-30T15:36:46.090Z,25.39
2018-07-30T15:39:13.381Z,25.43
2018-07-30T15:41:40.618Z,25.30
2018-07-30T15:44:08.013Z,26.43
2018-07-30T15:46:35.621Z,27.30
2018-07-30T15:49:02.877Z,27.06
2018-07-30T15:51:30.157Z,26.94
2018-07-30T15:53:57.392Z,26.09
2018-07-30T15:56:24.618Z,26.72
2018-07-30T15:58:51.902Z,27.72
2018-07-30T16:01:19.173Z,26.72
2018-07-30T16:03:46.430Z,26.39
2018-07-30T16:06:13.663Z,26.36
2018-07-30T16:08:40.927Z,26.18
2018-07-30T16:11:08.263Z,26.22
2018-07-30T16:13:35.531Z,26.42
2018-07-30T16:16:02.864Z,26.55
2018-07-30T16:18:30.168Z,25.85
2018-07-30T16:20:57.536Z,25.79
2018-07-30T16:23:24.842Z,26.05
2018-07-30T16:25:52.100Z,26.41
2018-07-30T16:28:19.328Z,26.62
2018-07-30T16:30:46.660Z,27.02
2018-07-30T16:33:13.863Z,27.42
2018-07-30T16:35:41.148Z,27.15
2018-07-30T16:38:08.488Z,26.39
2018-07-30T16:40:35.798Z,27.42
2018-07-30T16:43:03.088Z,27.24
2018-07-30T16:45:30.340Z,27.27
2018-07-30T16:47:57.548Z,28.01
2018-07-30T16:50:24.830Z,28.43
2018-07-30T16:52:52.087Z,28.52
2018-07-30T16:55:19.395Z,29.21
2018-07-30T16:57:46.643Z,28.51
2018-07-30T17:00:13.945Z,29.24
2018-07-30T17:02:41.237Z,28.80
2018-07-30T17:05:08.895Z,29.70
2018-07-30T17:07:36.329Z,29.25
2018-07-30T17:10:03.959Z,29.14
2018-07-30T17:12:31.320Z,28.82
2018-07-30T17:14:58.610Z,29.18
2018-07-30T17:17:25.785Z,29.19
2018-07-30T17:19:53.033Z,30.10
2018-07-30T17:22:20.302Z,29.75
2018-07-30T17:24:47.503Z,29.91
2018-07-30T17:27:14.767Z,29.72
2018-07-30T17:29:42.100Z,30.03
2018-07-30T17:32:09.315Z,30.65
2018-07-30T17:34:36.575Z,30.99
2018-07-30T17:37:04.213Z,31.12
2018-07-30T17:39:31.419Z,30.84
2018-07-30T17:41:58.719Z,30.85
2018-07-30T17:44:25.898Z,31.33
2018-07-30T17:46:53.173Z,31.52
2018-07-30T17:49:20.332Z,32.54
2018-07-30T17:51:47.550Z,32.81
2018-07-30T17:54:14.805Z,32.58
2018-07-30T17:56:42.087Z,32.28
2018-07-30T17:59:09.316Z,33.13
2018-07-30T18:01:36.471Z,34.21
2018-07-30T18:04:03.791Z,34.77
2018-07-30T18:06:30.966Z,34.78
2018-07-30T18:08:58.184Z,35.15
2018-07-30T18:11:25.365Z,35.44
2018-07-30T18:13:52.691Z,36.45
2018-07-30T18:16:19.983Z,36.04
2018-07-30T18:18:47.275Z,35.97
2018-07-30T18:21:14.564Z,36.91
2018-07-30T18:23:41.810Z,37.67
2018-07-30T18:26:09.117Z,37.69
2018-07-30T18:28:36.411Z,37.74
2018-07-30T18:31:03.730Z,37.28
2018-07-30T18:33:30.995Z,38.07
2018-07-30T18:35:58.228Z,37.73
2018-07-30T18:38:25.403Z,38.17
2018-07-30T18:40:52.871Z,38.04
2018-07-30T18:43:20.140Z,38.74
2018-07-30T18:45:47.442Z,39.14
2018-07-30T18:48:14.642Z,38.35
2018-07-30T18:50:41.868Z,39.29
2018-07-30T18:53:09.196Z,39.28
2018-07-30T18:55:36.401Z,39.36
2018-07-30T18:58:03.752Z,39.09
2018-07-30T19:00:31.019Z,39.63
2018-07-30T19:02:58.275Z,40.27
2018-07-30T19:05:25.536Z,39.25
2018-07-30T19:07:52.819Z,39.96
2018-07-30T19:10:20.052Z,40.41
2018-07-30T19:12:47.291Z,40.65
2018-07-30T19:15:14.531Z,39.94
2018-07-30T19:17:41.722Z,41.01
2018-07-30T19:20:09.026Z,40.66
2018-07-30T19:22:36.341Z,40.95
2018-07-30T19:25:03.677Z,41.61
2018-07-30T19:27:30.936Z,40.99
2018-07-30T19:29:58.195Z,41.61
2018-07-30T19:32:25.376Z,41.44
2018-07-30T19:34:52.707Z,42.60
2018-07-30T19:37:20.046Z,42.65
2018-07-30T19:39:47.300Z,42.70
2018-07-30T19:42:14.649Z,42.77
2018-07-30T19:44:42.049Z,42.58
2018-07-30T19:47:09.288Z,42.95
2018-07-30T19:49:36.572Z,42.85
2018-07-30T19:52:03.838Z,43.94
2018-07-30T19:54:31.090Z,44.03
2018-07-30T19:56:58.382Z,44.61
2018-07-30T19:59:25.644Z,44.34
2018-07-30T20:01:52.910Z,44.51
2018-07-30T20:04:20.146Z,45.12
2018-07-30T20:06:47.608Z,45.30
2018-07-30T20:09:14.855Z,45.38
2018-07-30T20:11:42.081Z,44.74
2018-07-30T20:14:09.356Z,44.83
2018-07-30T20:16:36.679Z,45.62
2018-07-30T20:19:04.104Z,46.50
2018-07-30T20:21:31.323Z,46.82
2018-07-30T20:23:58.666Z,47.44
2018-07-30T20:26:25.902Z,47.30
2018-07-30T20:28:53.116Z,47.22
2018-07-30T20:31:23.428Z,47.73
2018-07-30T20:33:50.804Z,48.38
2018-07-30T20:36:18.022Z,48.25
2018-07-30T20:38:45.282Z,47.68
2018-07-30T20:41:12.530Z,48.43
2018-07-30T20:43:39.879Z,48.24
2018-07-30T20:46:07.156Z,48.58
2018-07-30T20:48:34.432Z,49.30
2018-07-30T20:51:01.746Z,48.14
2018-07-30T20:53:29.013Z,48.13
2018-07-30T20:55:56.349Z,47.94
2018-07-30T20:58:23.603Z,49.16
2018-07-30T21:00:50.970Z,48.64
2018-07-30T21:03:18.300Z,48.90
2018-07-30T21:05:45.555Z,50.01
2018-07-30T21:08:14.531Z,50.27
2018-07-30T21:10:42.998Z,50.06
2018-07-30T21:13:10.250Z,51.17
2018-07-30T21:15:37.550Z,50.69
2018-07-30T21:18:04.943Z,50.67
2018-07-30T21:20:32.384Z,51.63
2018-07-30T21:22:59.659Z,50.90
2018-07-30T21:25:26.912Z,51.51
2018-07-30T21:27:54.164Z,52.03
2018-07-30T21:30:21.522Z,50.91
2018-07-30T21:32:48.646Z,51.71
2018-07-30T21:35:16.480Z,52.07
2018-07-30T21:37:43.779Z,51.36
2018-07-30T21:40:11.116Z,51.55
2018-07-30T21:42:38.481Z,52.23
2018-07-30T21:45:05.808Z,53.20
2018-07-30T21:47:33.100Z,53.17
2018-07-30T21:50:00.415Z,52.46
2018-07-30T21:52:27.629Z,52.19
2018-07-30T21:54:54.867Z,52.58
2018-07-30T21:57:22.205Z,53.67
2018-07-30T21:59:49.429Z,52.73
2018-07-30T22:02:16.670Z,53.70
2018-07-30T22:04:44.001Z,52.96
2018-07-30T22:07:11.298Z,53.79
2018-07-30T22:09:38.630Z,53.56
2018-07-30T22:12:06.173Z,54.03
2018-07-30T22:14:33.497Z,53.32
2018-07-30T22:17:00.832Z,53.38
2018-07-30T22:19:28.035Z,54.39
2018-07-30T22:21:55.299Z,54.36
2018-07-30T22:24:22.571Z,53.85
2018-07-30T22:26:50.031Z,53.90
2018-07-30T22:29:17.309Z,53.55
2018-07-30T22:31:44.535Z,54.54
2018-07-30T22:34:11.831Z,55.04
2018-07-30T22:36:39.113Z,54.73
2018-07-30T22:39:08.713Z,54.90
2018-07-30T22:41:36.268Z,55.13
2018-07-30T22:44:03.577Z,56.00
2018-07-30T22:46:30.896Z,55.92
2018-07-30T22:48:58.157Z,56.28
2018-07-30T22:51:25.470Z,55.87
2018-07-30T22:53:52.765Z,55.58
2018-07-30T22:56:20.062Z,56.09
2018-07-30T22:58:47.321Z,55.82
2018-07-30T23:01:14.587Z,56.54
2018-07-30T23:03:41.851Z,56.41
2018-07-30T23:06:09.082Z,57.11
2018-07-30T23:08:36.239Z,58.33
2018-07-30T23:11:03.641Z,57.30
2018-07-30T23:13:30.934Z,57.37
2018-07-30T23:15:58.209Z,57.68
2018-07-30T23:18:25.432Z,57.82
2018-07-30T23:20:52.694Z,57.83
2018-07-30T23:23:20.058Z,58.44
2018-07-30T23:25:47.287Z,59.35
2018-07-30T23:28:14.569Z,59.26
2018-07-30T23:30:41.822Z,59.45
2018-07-30T23:33:09.034Z,60.17
2018-07-30T23:35:36.241Z,60.07
2018-07-30T23:38:03.516Z,59.52
2018-07-30T23:40:30.766Z,59.63
2018-07-30T23:42:58.041Z,59.86
2018-07-30T23:45:25.258Z,60.37
2018-07-30T23:47:52.476Z,60.69
2018-07-30T23:50:19.749Z,60.70
2018-07-30T23:52:47.044Z,60.29
2018-07-30T23:55:14.364Z,61.14
2018-07-30T23:57:41.697Z,61.13
